createdAt,value
2023-02-22T00:00:44.993Z,97971.00
2023-02-22T00:03:15.529Z,97958.00
2023-02-22T00:05:47.079Z,97960.00
2023-02-22T00:08:15.987Z,97960.00
2023-02-22T00:10:44.043Z,97951.00
2023-02-22T00:13:15.181Z,97942.00
2023-02-22T00:15:42.860Z,97946.00
2023-02-22T00:18:12.867Z,97941.00
2023-02-22T00:20:41.621Z,97935.00
2023-02-22T00:23:14.553Z,97936.00
2023-02-22T00:25:42.165Z,97940.00
2023-02-22T00:28:09.848Z,97938.00
2023-02-22T00:30:38.880Z,97937.00
2023-02-22T00:33:08.646Z,97941.00
2023-02-22T00:35:36.256Z,97930.00
2023-02-22T00:38:05.126Z,97938.00
2023-02-22T00:40:34.886Z,97933.00
2023-02-22T00:43:05.082Z,97927.00
2023-02-22T00:45:34.775Z,97924.00
2023-02-22T00:48:06.923Z,97926.00
2023-02-22T00:50:35.213Z,97926.00
2023-02-22T00:53:05.057Z,97929.00
2023-02-22T00:55:36.397Z,97924.00
2023-02-22T00:58:08.431Z,97930.00
2023-02-22T01:00:38.272Z,97928.00
2023-02-22T01:03:08.937Z,97924.00
2023-02-22T01:05:38.214Z,97924.00
2023-02-22T01:08:07.524Z,97925.00
2023-02-22T01:10:36.276Z,97926.00
2023-02-22T01:13:08.609Z,97929.00
2023-02-22T01:15:38.877Z,97918.00
2023-02-22T01:18:08.598Z,97915.00
2023-02-22T01:20:36.274Z,97906.00
2023-02-22T01:23:08.134Z,97907.00
2023-02-22T01:25:36.703Z,97905.00
2023-02-22T01:28:06.142Z,97906.00
2023-02-22T01:30:35.620Z,97905.00
2023-02-22T01:33:05.178Z,97904.00
2023-02-22T01:35:36.153Z,97905.00
2023-02-22T01:38:04.097Z,97900.00
2023-02-22T01:40:34.117Z,97900.00
2023-02-22T01:43:04.447Z,97892.00
2023-02-22T01:46:08.196Z,97895.00
2023-02-22T01:48:42.329Z,97890.00
2023-02-22T01:51:15.974Z,97892.00
2023-02-22T01:53:50.632Z,97893.00
2023-02-22T01:56:20.038Z,97888.00
2023-02-22T01:58:52.721Z,97887.00
2023-02-22T02:01:23.066Z,97888.00
2023-02-22T02:03:53.047Z,97881.00
2023-02-22T02:06:22.237Z,97883.00
2023-02-22T02:08:57.047Z,97870.00
2023-02-22T02:11:26.451Z,97875.00
2023-02-22T02:13:56.776Z,97878.00
2023-02-22T02:16:26.538Z,97868.00
2023-02-22T02:18:55.159Z,97871.00
2023-02-22T02:22:06.042Z,97867.00
2023-02-22T02:24:57.475Z,97862.00
2023-02-22T02:27:28.072Z,97860.00
2023-02-22T02:30:37.093Z,97856.00
2023-02-22T02:33:11.125Z,97860.00
2023-02-22T02:35:52.715Z,97856.00
2023-02-22T02:38:29.627Z,97856.00
2023-02-22T02:41:04.128Z,97864.00
2023-02-22T02:43:36.026Z,97862.00
2023-02-22T02:46:08.726Z,97860.00
2023-02-22T02:48:42.673Z,97857.00
2023-02-22T02:51:14.405Z,97862.00
2023-02-22T02:53:45.897Z,97854.00
2023-02-22T02:56:14.059Z,97850.00
2023-02-22T02:58:50.455Z,97848.00
2023-02-22T03:01:33.468Z,97846.00
2023-02-22T03:04:20.479Z,97853.00
2023-02-22T03:07:26.674Z,97845.00
2023-02-22T03:10:09.808Z,97844.00
2023-02-22T03:12:45.248Z,97845.00
2023-02-22T03:15:23.468Z,97841.00
2023-02-22T03:17:57.606Z,97841.00
2023-02-22T03:20:32.727Z,97844.00
2023-02-22T03:23:05.794Z,97841.00
2023-02-22T03:25:37.533Z,97842.00
2023-02-22T03:28:11.485Z,97839.00
2023-02-22T03:30:41.670Z,97837.00
2023-02-22T03:33:14.179Z,97839.00
2023-02-22T03:35:48.142Z,97835.00
2023-02-22T03:38:20.117Z,97830.00
2023-02-22T03:40:52.228Z,97829.00
2023-02-22T03:43:25.943Z,97825.00
2023-02-22T03:45:54.066Z,97835.00
2023-02-22T03:48:30.271Z,97838.00
2023-02-22T03:51:00.976Z,97829.00
2023-02-22T03:53:30.563Z,97826.00
2023-02-22T03:56:00.126Z,97831.00
2023-02-22T03:58:32.585Z,97829.00
2023-02-22T04:01:00.322Z,97825.00
2023-02-22T04:03:27.976Z,97828.00
2023-02-22T04:05:55.580Z,97818.00
2023-02-22T04:08:24.613Z,97823.00
2023-02-22T04:10:52.756Z,97829.00
2023-02-22T04:13:20.410Z,97830.00
2023-02-22T04:15:48.512Z,97820.00
2023-02-22T04:18:16.281Z,97822.00
2023-02-22T04:20:44.712Z,97814.00
2023-02-22T04:23:12.825Z,97824.00
2023-02-22T04:25:41.842Z,97822.00
2023-02-22T04:28:09.606Z,97818.00
2023-02-22T04:30:37.249Z,97820.00
2023-02-22T04:33:05.143Z,97818.00
2023-02-22T04:35:35.405Z,97814.00
2023-02-22T04:38:04.308Z,97811.00
2023-02-22T04:40:32.574Z,97811.00
2023-02-22T04:43:01.630Z,97808.00
2023-02-22T04:45:29.262Z,97817.00
2023-02-22T04:47:56.923Z,97806.00
2023-02-22T04:50:24.917Z,97817.00
2023-02-22T04:52:52.586Z,97808.00
2023-02-22T04:55:20.534Z,97804.00
2023-02-22T04:57:48.183Z,97808.00
2023-02-22T05:00:21.772Z,97809.00
2023-02-22T05:02:50.043Z,97802.00
2023-02-22T05:05:19.065Z,97806.00
2023-02-22T05:07:46.705Z,97802.00
2023-02-22T05:10:15.007Z,97798.00
2023-02-22T05:12:42.614Z,97807.00
2023-02-22T05:15:11.147Z,97803.00
2023-02-22T05:17:40.147Z,97806.00
2023-02-22T05:20:08.612Z,97803.00
2023-02-22T05:22:36.442Z,97796.00
2023-02-22T05:25:04.310Z,97791.00
2023-02-22T05:27:31.948Z,97793.00
2023-02-22T05:29:59.656Z,97787.00
2023-02-22T05:32:27.966Z,97785.00
2023-02-22T05:34:56.933Z,97786.00
2023-02-22T05:37:24.544Z,97778.00
2023-02-22T05:39:52.172Z,97781.00
2023-02-22T05:42:19.987Z,97782.00
2023-02-22T05:44:47.624Z,97779.00
2023-02-22T05:47:15.246Z,97774.00
2023-02-22T05:49:42.861Z,97786.00
2023-02-22T05:52:11.818Z,97780.00
2023-02-22T05:54:39.571Z,97781.00
2023-02-22T05:57:07.738Z,97786.00
2023-02-22T05:59:35.428Z,97785.00
2023-02-22T06:02:03.167Z,97784.00
2023-02-22T06:04:30.858Z,97782.00
2023-02-22T06:06:58.509Z,97783.00
2023-02-22T06:09:27.504Z,97786.00
2023-02-22T06:11:55.391Z,97785.00
2023-02-22T06:14:24.330Z,97785.00
2023-02-22T06:16:55.284Z,97786.00
2023-02-22T06:19:23.287Z,97796.00
2023-02-22T06:21:51.537Z,97791.00
2023-02-22T06:24:19.845Z,97789.00
2023-02-22T06:26:56.864Z,97794.00
2023-02-22T06:29:24.778Z,97799.00
2023-02-22T06:31:52.838Z,97795.00
2023-02-22T06:34:21.808Z,97800.00
2023-02-22T06:36:50.160Z,97798.00
2023-02-22T06:39:18.878Z,97800.00
2023-02-22T06:41:48.402Z,97799.00
2023-02-22T06:44:16.238Z,97801.00
2023-02-22T06:46:49.139Z,97802.00
2023-02-22T06:49:16.764Z,97802.00
2023-02-22T06:51:44.655Z,97804.00
2023-02-22T06:54:12.622Z,97800.00
2023-02-22T06:56:40.370Z,97804.00
2023-02-22T06:59:09.419Z,97798.00
2023-02-22T07:01:37.354Z,97801.00
2023-02-22T07:04:05.060Z,97795.00
2023-02-22T07:06:32.681Z,97799.00
2023-02-22T07:09:01.082Z,97802.00
2023-02-22T07:11:28.756Z,97795.00
2023-02-22T07:13:56.453Z,97791.00
2023-02-22T07:16:25.512Z,97798.00
2023-02-22T07:18:53.211Z,97790.00
2023-02-22T07:21:20.841Z,97789.00
2023-02-22T07:23:53.745Z,97799.00
2023-02-22T07:26:21.826Z,97791.00
2023-02-22T07:28:49.474Z,97793.00
2023-02-22T07:31:18.254Z,97787.00
2023-02-22T07:33:48.524Z,97791.00
2023-02-22T07:36:17.937Z,97796.00
2023-02-22T07:38:45.835Z,97791.00
2023-02-22T07:41:13.536Z,97791.00
2023-02-22T07:43:41.275Z,97790.00
2023-02-22T07:46:08.992Z,97795.00
2023-02-22T07:48:36.654Z,97789.00
2023-02-22T07:51:06.538Z,97794.00
2023-02-22T07:53:34.496Z,97795.00
2023-02-22T07:56:05.177Z,97791.00
2023-02-22T07:58:33.729Z,97790.00
2023-02-22T08:01:02.402Z,97790.00
2023-02-22T08:03:34.265Z,97785.00
2023-02-22T08:06:03.022Z,97788.00
2023-02-22T08:08:32.034Z,97787.00
2023-02-22T08:10:59.694Z,97781.00
2023-02-22T08:13:27.389Z,97778.00
2023-02-22T08:15:55.248Z,97779.00
2023-02-22T08:18:26.270Z,97782.00
2023-02-22T08:20:54.857Z,97778.00
2023-02-22T08:23:25.299Z,97780.00
2023-02-22T08:25:54.389Z,97780.00
2023-02-22T08:28:23.856Z,97774.00
2023-02-22T08:30:52.282Z,97768.00
2023-02-22T08:33:20.466Z,97767.00
2023-02-22T08:35:50.077Z,97773.00
2023-02-22T08:38:20.343Z,97768.00
2023-02-22T08:40:48.967Z,97769.00
2023-02-22T08:43:18.457Z,97769.00
2023-02-22T08:45:46.713Z,97770.00
2023-02-22T08:48:15.305Z,97762.00
2023-02-22T08:50:44.314Z,97765.00
2023-02-22T08:53:14.202Z,97759.00
2023-02-22T08:55:42.841Z,97766.00
2023-02-22T08:58:12.076Z,97771.00
2023-02-22T09:00:42.111Z,97761.00
2023-02-22T09:03:13.210Z,97762.00
2023-02-22T09:05:41.218Z,97770.00
2023-02-22T09:08:08.943Z,97767.00
2023-02-22T09:10:36.774Z,97761.00
2023-02-22T09:13:05.184Z,97760.00
2023-02-22T09:15:35.857Z,97766.00
2023-02-22T09:18:06.012Z,97761.00
2023-02-22T09:20:35.836Z,97765.00
2023-02-22T09:23:05.219Z,97772.00
2023-02-22T09:25:34.185Z,97762.00
2023-02-22T09:28:01.826Z,97758.00
2023-02-22T09:30:32.405Z,97765.00
2023-02-22T09:33:02.010Z,97761.00
2023-02-22T09:35:31.502Z,97754.00
2023-02-22T09:38:00.853Z,97767.00
2023-02-22T09:40:32.019Z,97747.00
2023-02-22T09:43:28.123Z,97755.00
2023-02-22T09:46:06.352Z,97755.00
2023-02-22T09:48:37.329Z,97751.00
2023-02-22T09:51:15.818Z,97744.00
2023-02-22T09:53:48.422Z,97746.00
2023-02-22T09:56:18.605Z,97737.00
2023-02-22T09:58:49.173Z,97741.00
2023-02-22T10:01:26.954Z,97745.00
2023-02-22T10:04:01.591Z,97741.00
2023-02-22T10:06:33.490Z,97740.00
2023-02-22T10:09:07.776Z,97738.00
2023-02-22T10:11:49.528Z,97737.00
2023-02-22T10:14:33.598Z,97737.00
2023-02-22T10:17:11.791Z,97739.00
2023-02-22T10:19:48.487Z,97737.00
2023-02-22T10:22:30.026Z,97728.00
2023-02-22T10:25:00.947Z,97731.00
2023-02-22T10:27:34.139Z,97734.00
2023-02-22T10:30:23.359Z,97727.00
2023-02-22T10:32:56.812Z,97728.00
2023-02-22T10:35:26.754Z,97725.00
2023-02-22T10:37:59.698Z,97724.00
2023-02-22T10:40:32.982Z,97718.00
2023-02-22T10:43:06.037Z,97722.00
2023-02-22T10:45:36.970Z,97713.00
2023-02-22T10:48:08.553Z,97711.00
2023-02-22T10:50:40.328Z,97718.00
2023-02-22T10:53:09.806Z,97716.00
2023-02-22T10:55:58.420Z,97710.00
2023-02-22T10:58:27.413Z,97707.00
2023-02-22T11:00:55.121Z,97717.00
2023-02-22T11:03:24.774Z,97713.00
2023-02-22T11:05:52.510Z,97717.00
2023-02-22T11:08:30.509Z,97705.00
2023-02-22T11:11:01.540Z,97706.00
2023-02-22T11:13:33.351Z,97698.00
2023-02-22T11:16:03.588Z,97708.00
2023-02-22T11:18:35.209Z,97701.00
2023-02-22T11:21:06.412Z,97696.00
2023-02-22T11:23:34.784Z,97695.00
2023-02-22T11:26:07.491Z,97692.00
2023-02-22T11:28:38.097Z,97685.00
2023-02-22T11:31:17.387Z,97679.00
2023-02-22T11:33:52.576Z,97679.00
2023-02-22T11:36:37.508Z,97673.00
2023-02-22T11:39:12.105Z,97678.00
2023-02-22T11:41:39.772Z,97671.00
2023-02-22T11:44:23.893Z,97659.00
2023-02-22T11:46:55.609Z,97655.00
2023-02-22T11:49:25.337Z,97652.00
2023-02-22T11:52:13.801Z,97649.00
2023-02-22T11:54:56.972Z,97648.00
2023-02-22T11:57:41.153Z,97641.00
2023-02-22T12:00:24.658Z,97648.00
2023-02-22T12:03:19.035Z,97638.00
2023-02-22T12:06:00.614Z,97635.00
2023-02-22T12:08:41.083Z,97632.00
2023-02-22T12:11:18.245Z,97629.00
2023-02-22T12:14:02.516Z,97626.00
2023-02-22T12:16:44.157Z,97616.00
2023-02-22T12:19:27.679Z,97620.00
2023-02-22T12:22:02.289Z,97616.00
2023-02-22T12:24:35.733Z,97611.00
2023-02-22T12:27:09.692Z,97607.00
2023-02-22T12:29:43.758Z,97605.00
2023-02-22T12:32:17.111Z,97602.00
2023-02-22T12:34:47.923Z,97597.00
2023-02-22T12:37:20.351Z,97598.00
2023-02-22T12:39:56.536Z,97597.00
2023-02-22T12:42:31.519Z,97589.00
2023-02-22T12:45:08.345Z,97587.00
2023-02-22T12:47:44.369Z,97587.00
2023-02-22T12:50:19.231Z,97584.00
2023-02-22T12:52:52.893Z,97587.00
2023-02-22T12:55:25.034Z,97582.00
2023-02-22T12:57:59.652Z,97582.00
2023-02-22T13:00:31.716Z,97580.00
2023-02-22T13:03:03.149Z,97578.00
2023-02-22T13:05:36.023Z,97581.00
2023-02-22T13:08:18.277Z,97579.00
2023-02-22T13:11:01.781Z,97579.00
2023-02-22T13:13:36.479Z,97567.00
2023-02-22T13:16:15.997Z,97567.00
2023-02-22T13:18:54.001Z,97564.00
2023-02-22T13:21:26.204Z,97565.00
2023-02-22T13:24:03.496Z,97558.00
2023-02-22T13:26:37.421Z,97555.00
2023-02-22T13:29:09.744Z,97554.00
2023-02-22T13:32:05.994Z,97555.00
2023-02-22T13:35:09.312Z,97556.00
2023-02-22T13:38:04.351Z,97552.00
2023-02-22T13:41:18.113Z,97547.00
2023-02-22T13:44:05.923Z,97543.00
2023-02-22T13:46:54.496Z,97542.00
2023-02-22T13:49:33.796Z,97544.00
2023-02-22T13:52:07.842Z,97542.00
2023-02-22T13:54:42.166Z,97548.00
2023-02-22T13:57:22.178Z,97547.00
2023-02-22T13:59:49.868Z,97539.00
2023-02-22T14:02:36.633Z,97540.00
2023-02-22T14:05:34.080Z,97537.00
2023-02-22T14:08:03.617Z,97538.00
2023-02-22T14:10:47.325Z,97529.00
2023-02-22T14:13:17.109Z,97530.00
2023-02-22T14:16:17.353Z,97531.00
2023-02-22T14:18:46.840Z,97532.00
2023-02-22T14:21:15.676Z,97528.00
2023-02-22T14:23:46.007Z,97528.00
2023-02-22T14:26:17.852Z,97525.00
2023-02-22T14:28:53.402Z,97525.00
2023-02-22T14:31:35.447Z,97525.00
2023-02-22T14:34:08.336Z,97524.00
2023-02-22T14:36:42.743Z,97531.00
2023-02-22T14:39:18.767Z,97531.00
2023-02-22T14:41:53.780Z,97521.00
2023-02-22T14:44:26.949Z,97523.00
2023-02-22T14:46:57.903Z,97524.00
2023-02-22T14:49:30.007Z,97522.00
2023-02-22T14:52:03.897Z,97521.00
2023-02-22T14:54:39.788Z,97523.00
2023-02-22T14:57:15.640Z,97523.00
2023-02-22T14:59:57.088Z,97522.00
2023-02-22T15:02:26.074Z,97522.00
2023-02-22T15:04:55.108Z,97525.00
2023-02-22T15:07:27.437Z,97519.00
2023-02-22T15:10:20.578Z,97518.00
2023-02-22T15:13:09.494Z,97524.00
2023-02-22T15:15:40.768Z,97519.00
2023-02-22T15:18:18.555Z,97512.00
2023-02-22T15:20:48.331Z,97517.00
2023-02-22T15:23:16.994Z,97514.00
2023-02-22T15:25:50.897Z,97512.00
2023-02-22T15:28:19.820Z,97512.00
2023-02-22T15:30:47.525Z,97515.00
2023-02-22T15:33:18.289Z,97516.00
2023-02-22T15:35:46.125Z,97511.00
2023-02-22T15:38:21.617Z,97509.00
2023-02-22T15:41:00.634Z,97512.00
2023-02-22T15:43:29.942Z,97518.00
2023-02-22T15:45:58.331Z,97509.00
2023-02-22T15:48:26.946Z,97505.00
2023-02-22T15:51:10.626Z,97511.00
2023-02-22T15:53:44.138Z,97504.00
2023-02-22T15:56:16.366Z,97502.00
2023-02-22T15:58:47.402Z,97504.00
2023-02-22T16:01:19.142Z,97501.00
2023-02-22T16:03:50.052Z,97499.00
2023-02-22T16:06:35.197Z,97499.00
2023-02-22T16:09:09.444Z,97496.00
2023-02-22T16:11:43.353Z,97505.00
2023-02-22T16:14:26.767Z,97511.00
2023-02-22T16:17:13.481Z,97504.00
2023-02-22T16:19:44.730Z,97504.00
2023-02-22T16:22:28.296Z,97509.00
2023-02-22T16:25:16.677Z,97512.00
2023-02-22T16:27:48.255Z,97502.00
2023-02-22T16:30:26.052Z,97504.00
2023-02-22T16:32:55.394Z,97505.00
2023-02-22T16:35:28.555Z,97505.00
2023-02-22T16:37:59.366Z,97504.00
2023-02-22T16:40:32.184Z,97513.00
2023-02-22T16:43:07.071Z,97504.00
2023-02-22T16:45:36.069Z,97511.00
2023-02-22T16:48:15.467Z,97515.00
2023-02-22T16:50:43.375Z,97511.00
2023-02-22T16:53:11.637Z,97514.00
2023-02-22T16:55:39.714Z,97504.00
2023-02-22T16:58:08.769Z,97516.00
2023-02-22T17:00:36.411Z,97511.00
2023-02-22T17:03:05.939Z,97518.00
2023-02-22T17:05:36.502Z,97504.00
2023-02-22T17:08:04.925Z,97513.00
2023-02-22T17:10:32.978Z,97512.00
2023-02-22T17:13:12.680Z,97514.00
2023-02-22T17:15:49.280Z,97514.00
2023-02-22T17:18:22.543Z,97518.00
2023-02-22T17:20:50.700Z,97516.00
2023-02-22T17:23:18.968Z,97515.00
2023-02-22T17:25:49.860Z,97519.00
2023-02-22T17:28:17.856Z,97526.00
2023-02-22T17:30:48.785Z,97524.00
2023-02-22T17:33:19.582Z,97522.00
2023-02-22T17:35:47.930Z,97520.00
2023-02-22T17:38:18.439Z,97524.00
2023-02-22T17:40:48.512Z,97524.00
2023-02-22T17:43:16.897Z,97524.00
2023-02-22T17:45:45.950Z,97523.00
2023-02-22T17:48:14.890Z,97519.00
2023-02-22T17:50:46.459Z,97533.00
2023-02-22T17:53:14.757Z,97524.00
2023-02-22T17:55:43.984Z,97528.00
2023-02-22T17:58:14.528Z,97527.00
2023-02-22T18:00:45.149Z,97533.00
2023-02-22T18:03:16.374Z,97531.00
2023-02-22T18:05:47.950Z,97531.00
2023-02-22T18:08:16.170Z,97530.00
2023-02-22T18:10:44.722Z,97525.00
2023-02-22T18:13:16.687Z,97528.00
2023-02-22T18:15:44.523Z,97530.00
2023-02-22T18:18:12.524Z,97527.00
2023-02-22T18:20:43.861Z,97535.00
2023-02-22T18:23:16.126Z,97536.00
2023-02-22T18:25:57.223Z,97542.00
2023-02-22T18:28:31.898Z,97538.00
2023-02-22T18:31:00.202Z,97541.00
2023-02-22T18:33:27.944Z,97539.00
2023-02-22T18:35:55.839Z,97547.00
2023-02-22T18:38:25.350Z,97539.00
2023-02-22T18:41:00.713Z,97536.00
2023-02-22T18:43:29.031Z,97546.00
2023-02-22T18:46:06.470Z,97536.00
2023-02-22T18:48:34.127Z,97549.00
2023-02-22T18:51:02.139Z,97539.00
2023-02-22T18:53:31.163Z,97541.00
2023-02-22T18:56:04.301Z,97544.00
2023-02-22T18:58:32.846Z,97541.00
2023-02-22T19:01:01.379Z,97537.00
2023-02-22T19:03:29.933Z,97537.00
2023-02-22T19:06:02.126Z,97544.00
2023-02-22T19:08:32.451Z,97539.00
2023-02-22T19:11:06.367Z,97544.00
2023-02-22T19:13:35.282Z,97540.00
2023-02-22T19:16:04.101Z,97540.00
2023-02-22T19:18:32.556Z,97540.00
2023-02-22T19:21:01.259Z,97542.00
2023-02-22T19:23:34.222Z,97539.00
2023-02-22T19:26:05.014Z,97545.00
2023-02-22T19:28:34.783Z,97551.00
2023-02-22T19:31:17.410Z,97545.00
2023-02-22T19:33:45.946Z,97538.00
2023-02-22T19:36:14.865Z,97551.00
2023-02-22T19:38:42.893Z,97542.00
2023-02-22T19:41:15.750Z,97540.00
2023-02-22T19:43:43.646Z,97540.00
2023-02-22T19:46:12.591Z,97546.00
2023-02-22T19:48:41.219Z,97542.00
2023-02-22T19:51:10.774Z,97545.00
2023-02-22T19:53:40.037Z,97545.00
2023-02-22T19:56:09.465Z,97541.00
2023-02-22T19:58:39.342Z,97543.00
2023-02-22T20:01:14.017Z,97545.00
2023-02-22T20:03:42.339Z,97542.00
2023-02-22T20:06:10.658Z,97547.00
2023-02-22T20:08:41.986Z,97553.00
2023-02-22T20:11:10.656Z,97555.00
2023-02-22T20:13:40.415Z,97551.00
2023-02-22T20:16:09.871Z,97549.00
2023-02-22T20:18:37.763Z,97551.00
2023-02-22T20:21:09.534Z,97553.00
2023-02-22T20:23:40.069Z,97550.00
2023-02-22T20:26:16.060Z,97563.00
2023-02-22T20:28:45.609Z,97566.00
2023-02-22T20:31:14.854Z,97559.00
2023-02-22T20:33:43.255Z,97566.00
2023-02-22T20:36:12.308Z,97562.00
2023-02-22T20:38:40.936Z,97566.00
2023-02-22T20:41:09.197Z,97568.00
2023-02-22T20:43:37.241Z,97565.00
2023-02-22T20:46:07.717Z,97573.00
2023-02-22T20:48:35.762Z,97565.00
2023-02-22T20:51:06.711Z,97566.00
2023-02-22T20:53:34.490Z,97567.00
2023-02-22T20:56:02.862Z,97564.00
2023-02-22T20:58:30.563Z,97562.00
2023-02-22T21:01:06.448Z,97568.00
2023-02-22T21:03:34.669Z,97567.00
2023-02-22T21:06:05.007Z,97561.00
2023-02-22T21:08:33.864Z,97556.00
2023-02-22T21:11:01.674Z,97558.00
2023-02-22T21:13:29.453Z,97556.00
2023-02-22T21:15:57.151Z,97564.00
2023-02-22T21:18:26.121Z,97563.00
2023-02-22T21:20:53.818Z,97562.00
2023-02-22T21:23:21.428Z,97561.00
2023-02-22T21:25:53.080Z,97556.00
2023-02-22T21:28:21.756Z,97562.00
2023-02-22T21:30:50.005Z,97573.00
2023-02-22T21:33:17.814Z,97567.00
2023-02-22T21:35:47.315Z,97569.00
2023-02-22T21:38:15.281Z,97569.00
2023-02-22T21:40:44.489Z,97567.00
2023-02-22T21:43:13.057Z,97574.00
2023-02-22T21:45:40.961Z,97577.00
2023-02-22T21:48:08.673Z,97571.00
2023-02-22T21:50:37.759Z,97570.00
2023-02-22T21:53:07.385Z,97568.00
2023-02-22T21:55:35.797Z,97570.00
2023-02-22T21:58:03.538Z,97573.00
2023-02-22T22:00:37.928Z,97576.00
2023-02-22T22:03:12.618Z,97570.00
2023-02-22T22:05:45.139Z,97566.00
2023-02-22T22:08:19.595Z,97570.00
2023-02-22T22:10:55.153Z,97574.00
2023-02-22T22:13:23.178Z,97578.00
2023-02-22T22:15:51.163Z,97570.00
2023-02-22T22:18:18.992Z,97566.00
2023-02-22T22:20:49.756Z,97567.00
2023-02-22T22:23:18.869Z,97565.00
2023-02-22T22:25:46.492Z,97571.00
2023-02-22T22:28:14.275Z,97561.00
2023-02-22T22:30:43.437Z,97574.00
2023-02-22T22:33:11.838Z,97569.00
2023-02-22T22:35:39.572Z,97570.00
2023-02-22T22:38:09.404Z,97570.00
2023-02-22T22:40:39.070Z,97563.00
2023-02-22T22:43:06.989Z,97571.00
2023-02-22T22:45:34.652Z,97571.00
2023-02-22T22:48:02.303Z,97569.00
2023-02-22T22:50:30.173Z,97566.00
2023-02-22T22:52:58.128Z,97568.00
2023-02-22T22:55:26.162Z,97571.00
2023-02-22T22:57:55.230Z,97568.00
2023-02-22T23:00:27.498Z,97561.00
2023-02-22T23:02:56.461Z,97562.00
2023-02-22T23:05:27.783Z,97566.00
2023-02-22T23:07:57.024Z,97561.00
2023-02-22T23:10:28.034Z,97563.00
2023-02-22T23:12:57.277Z,97563.00
2023-02-22T23:15:26.053Z,97553.00
2023-02-22T23:17:56.085Z,97565.00
2023-02-22T23:20:26.274Z,97558.00
2023-02-22T23:22:54.148Z,97558.00
2023-02-22T23:25:22.174Z,97568.00
2023-02-22T23:27:50.382Z,97566.00
2023-02-22T23:30:19.913Z,97559.00
2023-02-22T23:32:48.002Z,97565.00
2023-02-22T23:35:18.924Z,97566.00
2023-02-22T23:37:53.039Z,97564.00
2023-02-22T23:40:20.813Z,97563.00
2023-02-22T23:42:49.898Z,97573.00
2023-02-22T23:45:23.515Z,97574.00
2023-02-22T23:47:54.636Z,97577.00
2023-02-22T23:50:24.562Z,97585.00
2023-02-22T23:52:57.740Z,97572.00
2023-02-22T23:55:27.047Z,97584.00
2023-02-22T23:57:59.236Z,97577.00
